Time;durP1;ratioP1;P1;durP2;ratioP2;P2;SDS_P1;SDS_P2;PMS_P1;PMS_P2;Temp;Humidity;BMP_temperature;BMP_pressure;BME280_temperature;BME280_humidity;BME280_pressure;Samples;Min_cycle;Max_cycle;Signal;HPM_P1;HPM_P2
2022/10/29 00:02:00;;;;;;;0.97;0.97;;;;;;;12.23;71.67;100296.78;5111410;28;20197;-64
2022/10/29 00:04:28;;;;;;;0.30;0.30;;;;;;;12.22;71.62;100295.13;5111133;28;20229;-58
2022/10/29 00:06:55;;;;;;;0.43;0.43;;;;;;;12.16;71.88;100296.31;5111338;28;20229;-64
2022/10/29 00:09:22;;;;;;;0.83;0.57;;;;;;;12.16;71.98;100298.06;5111242;28;20217;-64
2022/10/29 00:11:49;;;;;;;1.47;0.70;;;;;;;12.06;72.34;100304.63;5111220;28;20669;-64
2022/10/29 00:14:16;;;;;;;0.80;0.80;;;;;;;12.00;72.39;100301.50;5110801;28;20229;-64
2022/10/29 00:16:42;;;;;;;0.30;0.23;;;;;;;11.93;72.87;100295.09;5111026;28;20425;-58
2022/10/29 00:19:09;;;;;;;0.33;0.30;;;;;;;11.84;73.37;100284.53;5110892;27;20217;-65
2022/10/29 00:21:39;;;;;;;1.00;0.80;;;;;;;11.81;73.68;100285.53;5110717;28;20194;-64
2022/10/29 00:24:08;;;;;;;0.47;0.47;;;;;;;11.77;73.53;100284.88;5110848;28;20255;-58
2022/10/29 00:26:35;;;;;;;0.80;0.23;;;;;;;11.74;72.97;100284.22;5110673;28;20694;-64
2022/10/29 00:29:02;;;;;;;0.50;0.50;;;;;;;11.67;72.78;100290.63;5110498;28;20236;-64
2022/10/29 00:31:29;;;;;;;0.30;0.30;;;;;;;11.57;73.03;100288.59;5110766;28;20201;-63
2022/10/29 00:33:56;;;;;;;0.70;0.63;;;;;;;11.55;72.84;100290.44;5110712;28;20227;-58
2022/10/29 00:36:25;;;;;;;0.50;0.50;;;;;;;11.51;73.00;100288.13;5110640;27;20258;-58
2022/10/29 00:38:53;;;;;;;0.90;0.63;;;;;;;11.44;73.11;100285.09;5110608;28;20310;-58
2022/10/29 00:41:22;;;;;;;1.77;0.80;;;;;;;11.41;73.19;100281.88;5110671;28;20594;-64
2022/10/29 00:43:50;;;;;;;0.47;0.33;;;;;;;11.37;73.61;100277.81;5110359;28;20217;-64
2022/10/29 00:46:24;;;;;;;1.07;0.40;;;;;;;11.32;73.47;100268.69;5110545;28;20197;-64
2022/10/29 00:48:55;;;;;;;0.70;0.70;;;;;;;11.29;73.60;100273.16;5110323;28;20318;-64
2022/10/29 00:51:22;;;;;;;0.70;0.70;;;;;;;11.23;73.64;100273.50;5110535;28;20621;-57
2022/10/29 00:53:54;;;;;;;0.40;0.30;;;;;;;11.25;73.72;100275.03;5110282;28;20217;-64
2022/10/29 00:56:25;;;;;;;0.47;0.47;;;;;;;11.25;73.44;100275.03;5110477;28;20208;-64
2022/10/29 00:58:52;;;;;;;0.50;0.50;;;;;;;11.22;73.47;100267.53;5110241;28;20236;-58
2022/10/29 01:01:19;;;;;;;1.23;0.63;;;;;;;11.24;73.38;100270.03;5110392;28;20204;-58
2022/10/29 01:03:47;;;;;;;0.30;0.30;;;;;;;11.09;73.96;100267.41;5109617;28;20197;-58
2022/10/29 01:06:14;;;;;;;0.73;0.57;;;;;;;10.99;74.16;100263.69;5110119;28;20611;-64
2022/10/29 01:08:41;;;;;;;0.70;0.70;;;;;;;10.99;74.46;100260.31;5109779;28;20616;-65
2022/10/29 01:11:21;;;;;;;0.20;0.20;;;;;;;10.93;74.66;100261.47;5109853;28;20200;-64
2022/10/29 01:14:02;;;;;;;0.30;0.30;;;;;;;10.90;74.79;100259.06;5109942;28;20244;-58
2022/10/29 01:16:39;;;;;;;0.63;0.43;;;;;;;10.87;75.05;100254.13;5110047;28;20193;-58
2022/10/29 01:19:14;;;;;;;0.40;0.40;;;;;;;10.93;75.39;100256.34;5109701;28;20228;-64
2022/10/29 01:21:44;;;;;;;0.60;0.40;;;;;;;10.97;75.03;100254.47;5110032;28;20201;-64
2022/10/29 01:24:45;;;;;;;0.33;0.33;;;;;;;10.97;74.90;100257.84;5109926;28;20220;-63
2022/10/29 01:27:48;;;;;;;0.20;0.20;;;;;;;10.99;74.67;100248.34;5109813;28;20200;-64
2022/10/29 01:30:23;;;;;;;0.57;0.57;;;;;;;10.97;74.89;100241.69;5109922;28;20220;-58
2022/10/29 01:32:59;;;;;;;0.40;0.40;;;;;;;10.97;75.01;100246.78;5109812;28;20280;-65
2022/10/29 01:35:34;;;;;;;0.60;0.43;;;;;;;10.97;75.26;100241.69;5110023;28;20247;-65
2022/10/29 01:38:17;;;;;;;0.43;0.43;;;;;;;10.95;75.56;100246.03;5109790;28;20573;-64
2022/10/29 01:40:53;;;;;;;0.97;0.70;;;;;;;10.92;75.55;100241.91;5109736;28;20598;-58
2022/10/29 01:43:26;;;;;;;0.50;0.50;;;;;;;10.91;75.75;100237.72;5109824;28;20200;-58
2022/10/29 01:45:59;;;;;;;0.63;0.50;;;;;;;10.89;75.97;100231.84;5109800;28;20197;-58
2022/10/29 01:48:32;;;;;;;0.23;0.23;;;;;;;10.94;75.92;100235.00;5110123;28;20233;-64
2022/10/29 01:51:06;;;;;;;0.40;0.40;;;;;;;10.95;75.69;100228.94;5109644;28;20221;-58
2022/10/29 01:53:36;;;;;;;0.63;0.63;;;;;;;10.96;75.54;100235.72;5109734;28;20722;-58
2022/10/29 01:56:03;;;;;;;0.50;0.50;;;;;;;10.95;75.75;100228.94;5109516;28;20698;-58
2022/10/29 01:58:30;;;;;;;0.10;0.10;;;;;;;10.91;75.90;100229.19;5109453;28;20209;-58
2022/10/29 02:01:06;;;;;;;0.20;0.20;;;;;;;10.90;75.99;100225.81;5109552;28;20205;-65
2022/10/29 02:03:49;;;;;;;0.27;0.27;;;;;;;10.88;75.99;100222.53;5109524;28;20269;-58
2022/10/29 02:06:31;;;;;;;1.00;0.70;;;;;;;10.86;76.12;100222.59;5109725;28;20601;-64
2022/10/29 02:09:09;;;;;;;0.13;0.13;;;;;;;10.87;76.19;100220.88;5109549;28;20260;-58
2022/10/29 02:11:44;;;;;;;0.30;0.30;;;;;;;10.85;76.19;100227.81;5109664;28;20189;-58
2022/10/29 02:14:18;;;;;;;0.80;0.50;;;;;;;10.82;76.21;100227.97;5109703;28;20217;-58
2022/10/29 02:16:47;;;;;;;0.50;0.50;;;;;;;10.77;76.39;100217.19;5112988;28;20656;-65
2022/10/29 02:19:15;;;;;;;0.97;0.30;;;;;;;10.72;76.86;100216.59;5113202;28;20213;-58
2022/10/29 02:21:43;;;;;;;0.40;0.40;;;;;;;10.76;76.93;100212.97;5112963;28;20262;-58
2022/10/29 02:24:10;;;;;;;0.30;0.30;;;;;;;10.78;76.88;100216.28;5113428;28;20217;-64
2022/10/29 02:26:37;;;;;;;0.60;0.60;;;;;;;10.76;77.05;100216.38;5112779;28;20665;-64
2022/10/29 02:29:04;;;;;;;0.40;0.40;;;;;;;10.77;76.68;100218.00;5112839;27;20229;-64
2022/10/29 02:31:31;;;;;;;0.67;0.67;;;;;;;10.75;76.71;100216.44;5112729;28;20204;-58
2022/10/29 02:33:58;;;;;;;0.20;0.20;;;;;;;10.75;76.79;100221.56;5113056;28;20724;-58
2022/10/29 02:36:26;;;;;;;0.30;0.30;;;;;;;10.75;76.39;100213.88;5112856;28;20198;-64
2022/10/29 02:38:52;;;;;;;0.40;0.30;;;;;;;10.73;76.58;100215.69;5112527;28;20315;-58
2022/10/29 02:41:19;;;;;;;0.50;0.50;;;;;;;10.75;76.65;100216.44;5112688;28;20205;-58
2022/10/29 02:43:46;;;;;;;0.30;0.30;;;;;;;10.79;76.77;100217.91;5112641;28;20201;-64
2022/10/29 02:46:15;;;;;;;0.43;0.43;;;;;;;10.80;76.63;100215.28;5112428;28;20734;-64
2022/10/29 02:48:42;;;;;;;0.20;0.20;;;;;;;10.82;76.45;100223.69;5112497;28;20228;-58
2022/10/29 02:51:09;;;;;;;0.37;0.20;;;;;;;10.82;76.30;100215.19;5112409;28;20197;-58
2022/10/29 02:53:37;;;;;;;0.30;0.30;;;;;;;10.82;75.92;100217.72;5112428;28;20745;-58
2022/10/29 02:56:05;;;;;;;0.30;0.30;;;;;;;10.79;76.23;100217.91;5112206;28;20849;-65
2022/10/29 02:58:32;;;;;;;0.63;0.40;;;;;;;10.78;76.21;100214.53;5112304;28;20629;-58
2022/10/29 03:00:59;;;;;;;0.67;0.50;;;;;;;10.76;76.62;100213.81;5112595;28;20684;-65
2022/10/29 03:03:26;;;;;;;0.50;0.40;;;;;;;10.71;76.39;100212.41;5112328;28;20204;-58
2022/10/29 03:05:53;;;;;;;0.27;0.27;;;;;;;10.69;76.36;100211.66;5112089;28;20209;-59
2022/10/29 03:08:20;;;;;;;0.30;0.30;;;;;;;10.65;76.25;100209.28;5111969;28;20605;-58
2022/10/29 03:10:48;;;;;;;0.50;0.40;;;;;;;10.65;76.31;100204.16;5111976;28;20775;-64
2022/10/29 03:13:15;;;;;;;0.20;0.20;;;;;;;10.60;76.13;100208.69;5111923;28;20685;-58
2022/10/29 03:15:44;;;;;;;0.67;0.57;;;;;;;10.40;77.20;100203.81;5111896;28;20236;-58
2022/10/29 03:18:11;;;;;;;0.30;0.30;;;;;;;10.41;77.45;100203.75;5112026;28;20350;-58
2022/10/29 03:20:38;;;;;;;0.63;0.63;;;;;;;10.39;77.33;100200.44;5111649;28;20221;-64
2022/10/29 03:23:05;;;;;;;1.27;0.87;;;;;;;10.37;77.80;100192.03;5112303;28;20281;-64
2022/10/29 03:25:31;;;;;;;0.60;0.40;;;;;;;10.36;77.82;100199.78;5111269;28;20225;-58
2022/10/29 03:28:00;;;;;;;0.20;0.20;;;;;;;10.34;77.48;100191.38;5112144;28;20717;-58
2022/10/29 03:30:26;;;;;;;0.20;0.20;;;;;;;10.25;78.13;100199.50;5111624;28;20221;-64
2022/10/29 03:32:53;;;;;;;0.40;0.37;;;;;;;10.25;78.40;100191.84;5111737;28;20737;-58
2022/10/29 03:35:20;;;;;;;0.60;0.50;;;;;;;10.29;78.32;100198.47;5111733;28;20225;-64
2022/10/29 03:37:49;;;;;;;0.30;0.30;;;;;;;10.31;78.43;100196.66;5111522;28;20197;-64
2022/10/29 03:40:16;;;;;;;0.27;0.27;;;;;;;10.31;78.37;100184.69;5111319;28;20244;-65
2022/10/29 03:42:43;;;;;;;0.40;0.40;;;;;;;10.33;78.40;100194.84;5111423;28;20202;-64
2022/10/29 03:45:12;;;;;;;0.63;0.20;;;;;;;10.33;78.23;100193.13;5111400;28;20709;-64
2022/10/29 03:47:39;;;;;;;0.37;0.33;;;;;;;10.29;78.37;100194.16;5111213;28;20206;-64
2022/10/29 03:50:07;;;;;;;0.20;0.20;;;;;;;10.30;78.39;100192.47;5111050;28;20240;-64
2022/10/29 03:52:33;;;;;;;0.40;0.40;;;;;;;10.28;78.49;100176.38;5111202;28;20209;-65
2022/10/29 03:55:00;;;;;;;2.10;0.77;;;;;;;10.30;78.36;100184.78;5111571;28;20224;-57
2022/10/29 03:57:27;;;;;;;0.20;0.20;;;;;;;10.25;78.11;100179.06;5111332;28;20194;-64
2022/10/29 03:59:54;;;;;;;0.30;0.30;;;;;;;10.24;78.65;100177.38;5111254;28;20538;-58
2022/10/29 04:02:23;;;;;;;0.67;0.67;;;;;;;10.22;78.69;100177.50;5111162;28;20798;-64
2022/10/29 04:04:50;;;;;;;0.37;0.37;;;;;;;10.23;78.78;100184.25;5111024;28;20244;-64
2022/10/29 04:07:16;;;;;;;0.30;0.30;;;;;;;10.23;78.79;100188.53;5110967;28;20200;-64
2022/10/29 04:09:43;;;;;;;0.20;0.20;;;;;;;10.25;78.50;100179.06;5110842;28;20232;-64
2022/10/29 04:12:10;;;;;;;0.60;0.60;;;;;;;10.29;78.34;100178.00;5111268;28;20197;-65
2022/10/29 04:14:37;;;;;;;0.10;0.10;;;;;;;10.27;78.21;100174.69;5110880;28;20213;-65
2022/10/29 04:17:04;;;;;;;0.30;0.30;;;;;;;10.24;78.18;100182.50;5110700;28;20242;-58
2022/10/29 04:19:32;;;;;;;0.57;0.57;;;;;;;10.21;78.49;100178.41;5110772;28;20697;-58
2022/10/29 04:21:58;;;;;;;0.10;0.10;;;;;;;10.17;78.63;100175.16;5110632;28;20193;-65
2022/10/29 04:24:25;;;;;;;0.30;0.30;;;;;;;10.15;78.94;100179.56;5110986;28;20775;-58
2022/10/29 04:26:52;;;;;;;0.23;0.23;;;;;;;10.13;78.75;100178.81;5110494;28;20198;-64
2022/10/29 04:29:19;;;;;;;0.20;0.20;;;;;;;10.12;78.69;100172.06;5110576;28;20245;-65
2022/10/29 04:31:45;;;;;;;0.37;0.37;;;;;;;10.12;78.91;100177.16;5110352;28;20204;-58
2022/10/29 04:34:12;;;;;;;0.27;0.27;;;;;;;10.13;78.66;100176.25;5110650;28;20224;-65
2022/10/29 04:36:40;;;;;;;0.20;0.20;;;;;;;10.10;78.74;100178.97;5110294;28;20201;-58
2022/10/29 04:39:07;;;;;;;0.30;0.30;;;;;;;10.07;78.78;100174.00;5110024;28;20709;-64
2022/10/29 04:41:34;;;;;;;0.27;0.27;;;;;;;10.07;78.94;100179.13;5110302;28;20287;-58
2022/10/29 04:44:01;;;;;;;0.30;0.30;;;;;;;10.05;78.92;100178.38;5110117;28;20253;-58
2022/10/29 04:46:28;;;;;;;0.23;0.23;;;;;;;10.03;79.41;100182.72;5110324;28;20205;-65
2022/10/29 04:48:55;;;;;;;0.30;0.30;;;;;;;10.04;79.26;100179.28;5110452;27;20233;-65
2022/10/29 04:51:23;;;;;;;0.43;0.43;;;;;;;10.06;78.88;100181.75;5110537;28;20295;-58
2022/10/29 04:53:51;;;;;;;0.30;0.30;;;;;;;10.03;78.97;100180.19;5110143;28;20291;-64
2022/10/29 04:56:19;;;;;;;0.37;0.37;;;;;;;10.02;79.16;100188.75;5110003;28;20205;-58
2022/10/29 04:58:45;;;;;;;0.30;0.30;;;;;;;10.00;78.97;100187.19;5109888;28;20663;-64
2022/10/29 05:01:12;;;;;;;0.30;0.30;;;;;;;9.98;79.04;100185.53;5110060;28;20205;-64
2022/10/29 05:03:39;;;;;;;0.60;0.60;;;;;;;9.95;79.22;100179.78;5109924;28;20217;-58
2022/10/29 05:06:07;;;;;;;0.40;0.30;;;;;;;9.98;79.03;100182.16;5110281;28;20208;-58
2022/10/29 05:08:34;;;;;;;0.20;0.20;;;;;;;10.00;79.07;100192.28;5109790;28;20709;-64
2022/10/29 05:11:04;;;;;;;0.20;0.20;;;;;;;10.01;78.96;100184.56;5109985;28;20227;-65
2022/10/29 05:13:31;;;;;;;0.53;0.53;;;;;;;10.00;78.83;100190.56;5110033;28;20201;-58
2022/10/29 05:15:58;;;;;;;1.57;0.47;;;;;;;10.00;79.08;100193.09;5109991;28;20204;-64
2022/10/29 05:18:25;;;;;;;0.53;0.43;;;;;;;10.01;79.10;100189.66;5109622;28;20193;-58
2022/10/29 05:20:53;;;;;;;3.20;0.60;;;;;;;10.02;78.87;100188.75;5109816;28;20217;-58
2022/10/29 05:23:20;;;;;;;0.30;0.30;;;;;;;10.01;79.12;100192.22;5109782;28;20712;-58
2022/10/29 05:25:48;;;;;;;0.23;0.23;;;;;;;10.02;79.04;100196.41;5109730;28;20304;-64
2022/10/29 05:28:18;;;;;;;0.63;0.63;;;;;;;10.07;79.30;100197.00;5109619;28;20233;-58
2022/10/29 05:30:46;;;;;;;0.57;0.40;;;;;;;10.13;79.00;100199.25;5109734;28;20278;-65
2022/10/29 05:33:16;;;;;;;0.27;0.27;;;;;;;10.14;78.79;100210.28;5109804;28;20653;-57
2022/10/29 05:35:43;;;;;;;0.37;0.30;;;;;;;10.17;78.76;100205.84;5109814;28;20225;-59
2022/10/29 05:38:11;;;;;;;0.40;0.40;;;;;;;10.20;78.69;100205.66;5109888;28;20685;-64
2022/10/29 05:40:38;;;;;;;0.10;0.10;;;;;;;10.23;78.71;100211.53;5110037;28;20712;-65
2022/10/29 05:43:05;;;;;;;0.50;0.50;;;;;;;10.31;78.31;100212.00;5109726;28;20202;-65
2022/10/29 05:45:34;;;;;;;0.43;0.43;;;;;;;10.34;78.52;100214.38;5109382;28;20614;-58
2022/10/29 05:48:04;;;;;;;0.30;0.30;;;;;;;10.37;78.74;100216.78;5109662;28;20748;-58
2022/10/29 05:50:32;;;;;;;1.20;0.60;;;;;;;10.42;78.44;100209.69;5113478;28;20233;-58
2022/10/29 05:52:59;;;;;;;0.30;0.30;;;;;;;10.45;78.46;100204.41;5113752;28;20197;-58
2022/10/29 05:55:27;;;;;;;0.73;0.40;;;;;;;10.53;77.96;100207.38;5113797;28;20216;-58
2022/10/29 05:57:56;;;;;;;0.23;0.23;;;;;;;10.69;77.44;100211.66;5113428;28;20258;-65
2022/10/29 06:00:22;;;;;;;0.47;0.47;;;;;;;10.84;77.04;100221.03;5113436;28;20311;-57
2022/10/29 06:02:51;;;;;;;0.30;0.30;;;;;;;11.07;76.39;100218.03;5113328;28;20208;-58
2022/10/29 06:05:17;;;;;;;0.50;0.50;;;;;;;11.36;75.10;100215.56;5113417;28;20229;-58
2022/10/29 06:07:44;;;;;;;0.20;0.20;;;;;;;11.67;74.05;100224.84;5113420;28;20193;-58
2022/10/29 06:10:11;;;;;;;0.60;0.60;;;;;;;12.02;72.66;100221.16;5113710;28;20228;-64
2022/10/29 06:12:38;;;;;;;0.60;0.40;;;;;;;12.36;71.49;100223.31;5113446;28;20717;-58
2022/10/29 06:15:06;;;;;;;1.10;0.67;;;;;;;12.71;70.27;100225.41;5113772;28;20293;-58
2022/10/29 06:17:32;;;;;;;0.30;0.30;;;;;;;13.08;69.12;100230.78;5113272;28;20201;-65
2022/10/29 06:20:00;;;;;;;1.30;0.87;;;;;;;13.46;67.76;100232.63;5113270;28;20224;-58
2022/10/29 06:22:27;;;;;;;0.67;0.67;;;;;;;13.85;66.47;100234.31;5113426;28;20201;-58
2022/10/29 06:24:54;;;;;;;0.30;0.30;;;;;;;14.28;64.72;100221.06;5113554;28;20226;-59
2022/10/29 06:27:21;;;;;;;0.70;0.70;;;;;;;14.73;63.62;100230.84;5113450;28;20200;-65
2022/10/29 06:29:48;;;;;;;0.77;0.70;;;;;;;15.11;62.02;100230.66;5113154;28;20239;-65
2022/10/29 06:32:14;;;;;;;0.83;0.77;;;;;;;15.48;60.03;100227.97;5113008;28;20198;-65
2022/10/29 06:34:41;;;;;;;0.63;0.63;;;;;;;15.82;58.94;100232.25;5113346;28;20255;-64
2022/10/29 06:37:09;;;;;;;0.57;0.57;;;;;;;16.14;57.00;100238.44;5113447;28;20201;-64
2022/10/29 06:39:36;;;;;;;1.47;0.97;;;;;;;16.44;55.85;100238.66;5112934;28;20718;-58
2022/10/29 06:42:03;;;;;;;0.80;0.80;;;;;;;16.83;54.92;100239.06;5112932;28;20726;-65
2022/10/29 06:44:30;;;;;;;0.60;0.57;;;;;;;17.12;53.65;100238.47;5112671;28;20214;-65
2022/10/29 06:46:57;;;;;;;0.97;0.87;;;;;;;17.28;53.29;100238.88;5112948;27;20224;-65
2022/10/29 06:49:23;;;;;;;1.10;0.90;;;;;;;17.32;53.79;100235.09;5112829;28;20221;-60
2022/10/29 06:51:51;;;;;;;1.40;0.73;;;;;;;17.59;52.74;100233.75;5112942;28;20681;-65
2022/10/29 06:54:19;;;;;;;0.60;0.60;;;;;;;17.80;52.10;100233.75;5112401;28;20213;-58
2022/10/29 06:56:46;;;;;;;1.80;0.70;;;;;;;17.97;51.76;100240.91;5112574;28;20644;-65
2022/10/29 06:59:13;;;;;;;1.07;0.87;;;;;;;18.18;50.83;100240.88;5112368;28;20229;-65
2022/10/29 07:01:39;;;;;;;0.80;0.80;;;;;;;18.35;50.67;100244.56;5111894;28;20195;-64
2022/10/29 07:04:06;;;;;;;0.80;0.80;;;;;;;18.48;50.38;100246.94;5112360;28;20232;-65
2022/10/29 07:06:33;;;;;;;0.60;0.60;;;;;;;18.55;49.53;100251.44;5112414;28;20679;-65
2022/10/29 07:09:00;;;;;;;1.47;0.80;;;;;;;18.73;49.81;100249.06;5112082;28;20227;-58
2022/10/29 07:11:28;;;;;;;1.83;1.00;;;;;;;19.12;49.57;100254.25;5112275;28;20194;-58
2022/10/29 07:13:56;;;;;;;0.60;0.60;;;;;;;19.31;48.82;100247.38;5112657;28;20227;-60
2022/10/29 07:16:23;;;;;;;1.13;0.60;;;;;;;19.36;48.45;100250.41;5112264;28;20204;-65
2022/10/29 07:18:50;;;;;;;0.97;0.80;;;;;;;19.07;47.97;100246.06;5111838;28;20224;-58
2022/10/29 07:21:17;;;;;;;0.60;0.60;;;;;;;19.39;48.52;100250.94;5112165;28;20269;-65
2022/10/29 07:23:43;;;;;;;0.60;0.60;;;;;;;19.50;47.88;100249.97;5111939;28;20203;-58
2022/10/29 07:26:10;;;;;;;0.70;0.70;;;;;;;19.71;47.43;100249.78;5112126;28;20261;-65
2022/10/29 07:28:38;;;;;;;1.20;0.97;;;;;;;20.11;47.02;100249.50;5112036;28;20205;-65
2022/10/29 07:31:06;;;;;;;1.07;0.97;;;;;;;20.32;46.26;100253.66;5111801;28;20236;-59
2022/10/29 07:33:33;;;;;;;1.00;0.90;;;;;;;20.05;46.46;100255.28;5112027;28;20198;-58
2022/10/29 07:36:00;;;;;;;1.20;1.10;;;;;;;20.13;46.12;100262.38;5111939;28;20205;-65
2022/10/29 07:38:27;;;;;;;0.90;0.90;;;;;;;20.58;46.64;100249.41;5111692;27;20222;-65
2022/10/29 07:40:55;;;;;;;1.10;0.80;;;;;;;20.10;45.85;100255.69;5111821;28;20205;-65
2022/10/29 07:43:22;;;;;;;0.73;0.60;;;;;;;20.10;47.20;100255.69;5111653;28;20203;-58
2022/10/29 07:45:51;;;;;;;1.87;1.00;;;;;;;20.50;46.45;100262.28;5111641;28;20491;-65
2022/10/29 07:48:19;;;;;;;1.10;0.70;;;;;;;20.78;46.58;100267.47;5111509;28;20207;-65
2022/10/29 07:50:47;;;;;;;1.10;0.80;;;;;;;20.71;45.25;100261.22;5111238;28;20254;-64
2022/10/29 07:53:14;;;;;;;0.80;0.80;;;;;;;21.18;44.04;100255.81;5111592;28;20197;-58
2022/10/29 07:55:41;;;;;;;0.70;0.70;;;;;;;21.58;44.13;100259.69;5111307;28;20232;-65
2022/10/29 07:58:12;;;;;;;1.40;1.10;;;;;;;21.27;43.34;100254.91;5111449;28;20204;-65
2022/10/29 08:00:40;;;;;;;1.07;0.90;;;;;;;21.16;43.62;100260.34;5111243;28;20238;-58
2022/10/29 08:03:11;;;;;;;0.60;0.60;;;;;;;21.88;43.13;100261.81;5111203;28;20198;-58
2022/10/29 08:05:38;;;;;;;1.97;0.93;;;;;;;22.30;41.99;100255.81;5111250;28;20223;-65
2022/10/29 08:08:05;;;;;;;1.50;1.07;;;;;;;22.54;42.51;100262.06;5111144;28;20620;-65
2022/10/29 08:10:33;;;;;;;1.13;0.83;;;;;;;23.00;42.35;100254.66;5110906;28;20232;-58
2022/10/29 08:13:01;;;;;;;1.17;0.90;;;;;;;23.31;41.21;100256.63;5110117;28;20207;-65
2022/10/29 08:15:30;;;;;;;1.20;1.10;;;;;;;23.13;40.75;100252.41;5111051;28;20217;-59
2022/10/29 08:17:57;;;;;;;0.82;0.70;;;;;;;23.01;40.72;100251.09;5111039;28;20197;-58
2022/10/29 08:20:27;;;;;;;0.97;0.93;;;;;;;22.65;42.28;100251.34;5110765;28;20228;-65
2022/10/29 08:22:54;;;;;;;1.10;1.00;;;;;;;22.93;41.51;100251.06;5111247;28;20198;-65
2022/10/29 08:25:21;;;;;;;0.97;0.90;;;;;;;22.69;40.98;100250.06;5110781;28;20217;-65
2022/10/29 08:27:59;;;;;;;0.93;0.80;;;;;;;22.99;41.78;100248.63;5110691;28;20197;-66
2022/10/29 08:30:26;;;;;;;1.20;0.90;;;;;;;22.51;41.53;100247.56;5110792;28;20760;-59
2022/10/29 08:32:53;;;;;;;0.90;0.90;;;;;;;22.85;40.37;100245.84;5110593;28;20700;-65
2022/10/29 08:35:20;;;;;;;1.47;1.10;;;;;;;22.60;41.43;100238.81;5110650;28;20228;-59
2022/10/29 08:37:48;;;;;;;1.20;1.07;;;;;;;22.66;43.19;100241.72;5110575;28;20260;-65
2022/10/29 08:40:25;;;;;;;1.03;0.93;;;;;;;22.54;40.64;100246.44;5110552;28;20658;-65
2022/10/29 08:43:08;;;;;;;2.37;0.90;;;;;;;23.26;40.62;100244.88;5110536;28;20200;-59
2022/10/29 08:45:43;;;;;;;0.98;0.88;;;;;;;23.14;40.55;100235.75;5110560;28;20773;-59
2022/10/29 08:48:36;;;;;;;1.55;1.10;;;;;;;23.46;40.79;100234.09;5110501;28;20192;-58
2022/10/29 08:51:09;;;;;;;0.80;0.80;;;;;;;23.90;40.05;100233.66;5110326;28;20724;-58
2022/10/29 08:53:41;;;;;;;1.10;1.00;;;;;;;24.21;39.45;100235.50;5110344;28;20198;-64
2022/10/29 08:56:16;;;;;;;0.80;0.80;;;;;;;24.26;39.23;100235.78;5110382;28;20193;-59
2022/10/29 08:58:52;;;;;;;1.40;1.13;;;;;;;24.50;37.98;100232.25;5110054;28;20193;-58
2022/10/29 09:01:22;;;;;;;1.08;0.93;;;;;;;24.22;38.09;100239.72;5110271;28;20204;-65
2022/10/29 09:03:50;;;;;;;0.90;0.82;;;;;;;23.80;38.45;100227.84;5110040;28;20221;-59
2022/10/29 09:06:23;;;;;;;1.17;0.77;;;;;;;24.05;39.21;100229.34;5110098;28;20664;-65
2022/10/29 09:09:17;;;;;;;2.22;1.00;;;;;;;23.91;40.35;100232.66;5110129;28;20217;-65
2022/10/29 09:11:58;;;;;;;1.13;0.80;;;;;;;24.83;38.30;100227.59;5110150;28;20293;-59
2022/10/29 09:14:44;;;;;;;1.23;0.93;;;;;;;24.96;37.25;100227.84;5110228;28;20218;-65
2022/10/29 09:17:23;;;;;;;1.10;0.98;;;;;;;24.40;37.51;100227.19;5110254;28;20209;-65
2022/10/29 09:20:03;;;;;;;1.80;1.00;;;;;;;24.32;38.04;100225.47;5109836;28;20232;-59
2022/10/29 09:22:41;;;;;;;1.23;1.10;;;;;;;23.77;38.98;100225.56;5109988;28;20677;-65
2022/10/29 09:25:17;;;;;;;1.55;1.20;;;;;;;23.67;39.13;100223.91;5113972;28;20247;-59
2022/10/29 09:28:00;;;;;;;2.15;1.30;;;;;;;23.70;38.71;100221.00;5114475;28;20670;-65
2022/10/29 09:30:30;;;;;;;1.75;1.40;;;;;;;24.17;37.98;100222.78;5114443;28;20693;-59
2022/10/29 09:33:01;;;;;;;0.93;0.70;;;;;;;24.67;38.84;100212.03;5114595;27;20262;-59
2022/10/29 09:35:38;;;;;;;1.10;0.82;;;;;;;24.01;38.51;100217.63;5114249;28;20736;-65
2022/10/29 09:38:12;;;;;;;1.10;1.00;;;;;;;23.54;38.38;100204.56;5113946;28;20281;-58
2022/10/29 09:40:42;;;;;;;1.15;1.00;;;;;;;24.04;38.07;100208.63;5114621;28;20651;-59
2022/10/29 09:43:21;;;;;;;1.20;1.10;;;;;;;24.35;37.76;100203.41;5113920;28;20289;-59
2022/10/29 09:45:53;;;;;;;1.30;1.10;;;;;;;24.61;37.22;100203.91;5114045;28;20736;-63
2022/10/29 09:48:25;;;;;;;1.70;0.98;;;;;;;25.17;36.55;100202.81;5114002;28;20205;-65
2022/10/29 09:51:01;;;;;;;1.55;1.30;;;;;;;25.18;36.47;100200.00;5113660;28;20717;-66
2022/10/29 09:53:28;;;;;;;1.50;1.20;;;;;;;25.03;36.78;100197.34;5113995;28;20602;-65
2022/10/29 09:55:56;;;;;;;1.00;0.90;;;;;;;25.27;36.65;100198.13;5113810;28;20204;-59
2022/10/29 09:58:25;;;;;;;1.10;1.00;;;;;;;25.80;36.20;100190.97;5113728;28;20205;-66
2022/10/29 10:00:53;;;;;;;1.52;1.20;;;;;;;26.25;35.87;100185.69;5113749;28;20223;-59
2022/10/29 10:03:27;;;;;;;1.63;1.13;;;;;;;26.80;34.93;100179.75;5113496;28;20201;-66
2022/10/29 10:05:58;;;;;;;1.83;1.38;;;;;;;27.06;34.33;100175.72;5113814;27;20221;-65
2022/10/29 10:08:25;;;;;;;1.83;1.20;;;;;;;27.18;34.07;100171.56;5113886;28;20269;-66
2022/10/29 10:10:54;;;;;;;1.00;0.98;;;;;;;26.98;33.03;100165.34;5113348;28;20232;-66
2022/10/29 10:13:25;;;;;;;1.30;1.13;;;;;;;27.18;34.90;100168.94;5113461;28;20194;-65
2022/10/29 10:15:53;;;;;;;1.10;1.00;;;;;;;27.51;33.71;100165.69;5113467;28;20221;-66
2022/10/29 10:18:22;;;;;;;1.90;1.30;;;;;;;27.68;33.38;100156.47;5113118;28;20278;-59
2022/10/29 10:21:01;;;;;;;2.53;1.10;;;;;;;27.76;32.35;100151.03;5113039;28;20229;-59
2022/10/29 10:23:30;;;;;;;1.35;1.10;;;;;;;27.38;33.38;100145.44;5113365;28;20627;-65
2022/10/29 10:25:59;;;;;;;1.42;1.00;;;;;;;27.76;33.31;100148.41;5113413;28;20645;-66
2022/10/29 10:28:29;;;;;;;1.65;1.40;;;;;;;27.69;32.95;100137.06;5113088;28;20194;-66
2022/10/29 10:31:12;;;;;;;1.25;1.10;;;;;;;27.24;32.37;100134.03;5113249;28;20724;-66
2022/10/29 10:33:51;;;;;;;1.25;1.15;;;;;;;26.63;33.09;100125.94;5113259;28;20236;-66
2022/10/29 10:36:21;;;;;;;1.55;1.00;;;;;;;26.69;33.90;100127.78;5112126;28;20585;-59
2022/10/29 10:38:51;;;;;;;1.13;1.02;;;;;;;26.93;33.55;100125.72;5112920;28;20274;-66
2022/10/29 10:41:24;;;;;;;2.53;1.33;;;;;;;27.02;33.05;100129.81;5112865;28;20228;-65
2022/10/29 10:43:55;;;;;;;1.17;1.02;;;;;;;26.98;32.72;100128.59;5112815;28;20267;-59
2022/10/29 10:46:24;;;;;;;1.10;1.00;;;;;;;26.93;33.55;100125.72;5112817;28;20221;-66
2022/10/29 10:49:04;;;;;;;1.73;1.20;;;;;;;27.36;33.20;100125.59;5112613;28;20249;-65
2022/10/29 10:51:33;;;;;;;1.42;0.90;;;;;;;27.23;33.82;100111.41;5112589;28;20716;-66
2022/10/29 10:54:03;;;;;;;0.70;0.70;;;;;;;27.06;33.20;100115.31;5112734;28;20213;-66
2022/10/29 10:56:30;;;;;;;1.83;1.08;;;;;;;26.92;33.78;100118.88;5112645;28;20205;-66
2022/10/29 10:59:05;;;;;;;1.27;0.95;;;;;;;27.18;32.27;100113.00;5112781;28;20603;-59
2022/10/29 11:01:37;;;;;;;0.77;0.77;;;;;;;27.52;31.65;100114.78;5112869;28;20597;-59
2022/10/29 11:04:15;;;;;;;1.45;0.90;;;;;;;27.59;31.54;100120.06;5112210;28;20229;-66
2022/10/29 11:06:46;;;;;;;0.90;0.80;;;;;;;27.69;32.12;100110.81;5112479;28;20668;-59
2022/10/29 11:09:22;;;;;;;1.17;1.08;;;;;;;27.67;31.24;100112.00;5112329;28;20213;-59
2022/10/29 11:11:54;;;;;;;1.20;1.05;;;;;;;27.31;32.59;100102.53;5112295;28;20704;-59
2022/10/29 11:14:27;;;;;;;1.30;0.98;;;;;;;26.73;32.18;100102.78;5112583;28;20221;-59
2022/10/29 11:16:57;;;;;;;0.80;0.80;;;;;;;26.64;32.08;100096.88;5112449;28;20682;-59
2022/10/29 11:19:28;;;;;;;0.77;0.77;;;;;;;27.04;31.48;100091.88;5112123;28;20213;-65
2022/10/29 11:22:04;;;;;;;0.80;0.80;;;;;;;27.15;32.66;100087.94;5112140;28;20205;-65
2022/10/29 11:24:42;;;;;;;1.40;1.15;;;;;;;27.15;32.47;100087.94;5112282;28;20221;-59
2022/10/29 11:27:20;;;;;;;0.77;0.77;;;;;;;27.28;31.63;100093.25;5112148;28;20221;-65
2022/10/29 11:29:55;;;;;;;0.80;0.80;;;;;;;27.10;32.03;100085.84;5112305;28;20217;-59
2022/10/29 11:32:29;;;;;;;0.60;0.60;;;;;;;26.74;32.17;100080.00;5112164;28;20224;-66
2022/10/29 11:35:03;;;;;;;0.90;0.85;;;;;;;26.95;33.03;100076.50;5112362;28;20220;-66
2022/10/29 11:37:37;;;;;;;0.73;0.70;;;;;;;26.73;33.12;100065.25;5112086;28;20222;-59